Time;durP1;ratioP1;P1;durP2;ratioP2;P2;SDS_P1;SDS_P2;PMS_P1;PMS_P2;Temp;Humidity;BMP_temperature;BMP_pressure;BME280_temperature;BME280_humidity;BME280_pressure;Samples;Min_cycle;Max_cycle;Signal;HPM_P1;HPM_P2
2023/06/26 00:01:35;;;;;;;12.00;6.20;;;23.70;99.70;;;;;;4209587;28;20055;-85
2023/06/26 00:03:36;;;;;;;9.70;5.53;;;23.60;99.80;;;;;;4199343;28;20416;-85
2023/06/26 00:05:37;;;;;;;9.02;5.70;;;23.50;99.90;;;;;;4197572;28;20124;-84
2023/06/26 00:07:38;;;;;;;8.60;5.38;;;23.60;99.90;;;;;;4199293;28;20055;-84
2023/06/26 00:09:39;;;;;;;9.45;5.15;;;23.50;99.90;;;;;;4199748;28;20374;-84
2023/06/26 00:11:39;;;;;;;8.30;5.60;;;23.50;99.90;;;;;;4199403;28;20236;-85
2023/06/26 00:13:40;;;;;;;7.13;5.40;;;23.40;99.90;;;;;;4199701;28;20858;-84
2023/06/26 00:15:41;;;;;;;9.48;5.43;;;23.40;99.90;;;;;;4199984;28;20933;-84
2023/06/26 00:17:44;;;;;;;7.78;5.10;;;23.40;99.90;;;;;;4198722;28;20040;-85
2023/06/26 00:19:45;;;;;;;7.20;5.30;;;23.40;99.90;;;;;;4211910;28;20052;-84
2023/06/26 00:21:47;;;;;;;7.45;5.47;;;23.40;99.90;;;;;;4215557;28;20392;-84
2023/06/26 00:23:48;;;;;;;7.40;5.20;;;23.40;99.90;;;;;;4215984;28;20480;-84
2023/06/26 00:25:49;;;;;;;7.70;5.70;;;23.40;99.90;;;;;;4215898;28;20090;-84
2023/06/26 00:27:49;;;;;;;9.48;6.15;;;23.40;99.90;;;;;;4216070;28;20508;-84
2023/06/26 00:29:52;;;;;;;8.45;5.55;;;23.30;99.90;;;;;;4216038;28;20514;-85
2023/06/26 00:31:53;;;;;;;9.73;5.43;;;23.30;99.90;;;;;;4216795;28;20026;-85
2023/06/26 00:33:54;;;;;;;10.65;5.50;;;23.30;99.90;;;;;;4215188;28;20123;-85
2023/06/26 00:35:54;;;;;;;8.57;5.93;;;23.30;99.90;;;;;;4211066;28;20040;-85
2023/06/26 00:37:55;;;;;;;8.65;5.40;;;23.20;99.90;;;;;;4215268;28;20146;-84
2023/06/26 00:39:56;;;;;;;10.10;5.22;;;23.20;99.90;;;;;;4215306;28;20428;-84
2023/06/26 00:41:57;;;;;;;10.35;6.00;;;23.20;99.90;;;;;;4215978;28;20048;-84
2023/06/26 00:43:57;;;;;;;7.40;5.47;;;23.20;99.90;;;;;;4215523;28;20084;-84
2023/06/26 00:45:58;;;;;;;7.43;4.53;;;23.20;99.90;;;;;;4216169;28;20422;-84
2023/06/26 00:47:59;;;;;;;7.85;5.43;;;23.20;99.90;;;;;;4214471;28;20484;-84
2023/06/26 00:50:00;;;;;;;7.47;5.50;;;23.10;99.90;;;;;;4215025;28;20052;-84
2023/06/26 00:52:01;;;;;;;8.43;5.85;;;23.10;99.90;;;;;;4216026;28;20036;-84
2023/06/26 00:54:03;;;;;;;9.68;5.68;;;23.10;99.90;;;;;;4212030;28;20073;-84
2023/06/26 00:56:05;;;;;;;8.45;5.18;;;23.10;99.90;;;;;;4217570;28;20080;-83
2023/06/26 00:58:06;;;;;;;7.32;5.68;;;23.10;99.90;;;;;;4217403;28;20507;-84
2023/06/26 01:00:07;;;;;;;7.40;5.35;;;23.10;99.90;;;;;;4217322;28;20047;-84
2023/06/26 01:02:09;;;;;;;10.65;5.97;;;22.50;99.90;;;;;;4217559;28;20391;-84
2023/06/26 01:04:17;;;;;;;9.73;5.80;;;23.00;99.90;;;;;;4217693;28;20040;-84
2023/06/26 01:06:31;;;;;;;8.35;5.22;;;23.00;99.90;;;;;;4215673;28;20044;-85
2023/06/26 01:08:33;;;;;;;8.73;5.80;;;23.00;99.90;;;;;;4217472;28;20040;-84
2023/06/26 01:10:34;;;;;;;8.43;5.65;;;23.00;99.90;;;;;;4211444;28;20040;-84
2023/06/26 01:12:38;;;;;;;7.90;5.65;;;22.90;99.90;;;;;;4200634;28;20041;-84
2023/06/26 01:14:40;;;;;;;8.65;5.72;;;22.90;99.90;;;;;;4204249;28;20044;-84
2023/06/26 01:16:47;;;;;;;8.02;6.15;;;22.80;99.90;;;;;;4204784;28;20087;-84
2023/06/26 01:18:48;;;;;;;8.98;6.50;;;22.80;99.90;;;;;;4209797;28;20041;-84
2023/06/26 01:20:50;;;;;;;8.25;5.82;;;22.20;99.90;;;;;;4206236;28;20044;-85
2023/06/26 01:23:00;;;;;;;11.48;6.00;;;22.80;99.90;;;;;;4194144;28;20049;-84
2023/06/26 01:25:38;;;;;;;9.13;6.20;;;22.70;99.90;;;;;;4207541;28;20066;-85
2023/06/26 01:27:40;;;;;;;10.30;6.38;;;22.70;99.90;;;;;;4209965;28;20071;-86
2023/06/26 01:29:42;;;;;;;10.50;5.88;;;22.70;99.90;;;;;;4228972;28;20050;-85
2023/06/26 01:31:46;;;;;;;10.30;6.40;;;22.70;99.90;;;;;;4215809;28;20044;-85
2023/06/26 01:33:47;;;;;;;9.73;6.63;;;22.70;99.90;;;;;;4215670;28;20036;-85
2023/06/26 01:35:49;;;;;;;8.70;6.10;;;22.60;99.90;;;;;;4230708;28;20396;-84
2023/06/26 01:37:50;;;;;;;10.43;6.28;;;22.60;99.90;;;;;;4181293;28;20158;-85
2023/06/26 01:39:51;;;;;;;9.75;5.82;;;22.60;99.90;;;;;;4215972;28;20044;-85
2023/06/26 01:41:51;;;;;;;10.93;6.47;;;22.60;99.90;;;;;;4215568;28;20040;-84
2023/06/26 01:44:07;;;;;;;11.15;7.05;;;22.60;99.90;;;;;;4214632;28;20052;-85
2023/06/26 01:46:38;;;;;;;8.93;6.70;;;22.60;99.90;;;;;;4215305;28;20055;-85
2023/06/26 01:48:53;;;;;;;8.73;6.18;;;22.60;99.90;;;;;;4211142;28;20048;-85
2023/06/26 01:50:58;;;;;;;11.07;6.30;;;22.60;99.90;;;;;;4214421;28;20884;-85
2023/06/26 01:53:11;;;;;;;10.35;6.43;;;22.50;99.90;;;;;;4210290;28;20485;-85
2023/06/26 01:55:20;;;;;;;9.30;6.30;;;22.50;99.90;;;;;;4205517;28;20056;-85
2023/06/26 01:57:26;;;;;;;10.40;7.00;;;22.50;99.90;;;;;;4215054;28;20054;-85
2023/06/26 01:59:30;;;;;;;10.65;6.38;;;22.50;99.90;;;;;;4198194;28;20045;-85
2023/06/26 02:01:33;;;;;;;9.30;6.50;;;22.40;99.90;;;;;;4214097;28;20473;-85
2023/06/26 02:03:34;;;;;;;9.73;6.45;;;22.40;99.90;;;;;;4215581;28;20074;-84
2023/06/26 02:05:36;;;;;;;9.50;6.65;;;22.40;99.90;;;;;;4206515;28;20447;-85
2023/06/26 02:07:36;;;;;;;11.05;6.53;;;22.40;99.90;;;;;;4209018;28;20058;-84
2023/06/26 02:09:38;;;;;;;9.50;6.35;;;22.30;99.90;;;;;;4215110;28;20546;-84
2023/06/26 02:11:39;;;;;;;9.10;6.35;;;22.30;99.90;;;;;;4215551;28;20486;-84
2023/06/26 02:13:40;;;;;;;11.18;5.75;;;22.30;99.90;;;;;;4216168;28;20127;-84
2023/06/26 02:15:41;;;;;;;8.65;6.78;;;22.30;99.90;;;;;;4214872;28;20044;-84
2023/06/26 02:17:42;;;;;;;10.25;6.95;;;22.20;99.90;;;;;;4215543;28;20051;-84
2023/06/26 02:19:47;;;;;;;10.68;7.05;;;22.20;99.90;;;;;;4213988;28;20051;-84
2023/06/26 02:21:49;;;;;;;12.40;6.35;;;22.20;99.90;;;;;;4213650;28;20101;-85
2023/06/26 02:23:50;;;;;;;8.90;6.60;;;22.20;99.90;;;;;;4213019;28;20123;-84
2023/06/26 02:25:50;;;;;;;9.35;6.65;;;22.20;99.90;;;;;;4214338;28;20051;-84
2023/06/26 02:27:51;;;;;;;8.40;6.40;;;22.20;99.90;;;;;;4214493;28;20044;-84
2023/06/26 02:29:52;;;;;;;10.48;7.05;;;22.20;99.90;;;;;;4214196;28;20091;-84
2023/06/26 02:31:52;;;;;;;8.65;6.68;;;22.10;99.90;;;;;;4217560;28;20044;-85
2023/06/26 02:33:53;;;;;;;8.77;6.22;;;22.10;99.90;;;;;;4217172;28;20052;-84
2023/06/26 02:35:54;;;;;;;9.00;6.38;;;22.10;99.90;;;;;;4217716;28;20123;-84
2023/06/26 02:37:55;;;;;;;8.35;6.43;;;22.10;99.90;;;;;;4218018;28;20051;-85
2023/06/26 02:39:57;;;;;;;9.05;6.03;;;22.10;99.90;;;;;;4217200;28;20436;-85
2023/06/26 02:41:58;;;;;;;10.63;6.60;;;22.10;99.90;;;;;;4210597;28;20042;-84
2023/06/26 02:43:58;;;;;;;7.85;5.75;;;22.10;99.90;;;;;;4213955;28;20492;-84
2023/06/26 02:45:59;;;;;;;9.15;6.10;;;22.10;99.90;;;;;;4217279;28;20062;-84
2023/06/26 02:48:00;;;;;;;11.25;6.43;;;22.10;99.90;;;;;;4217314;28;20040;-85
2023/06/26 02:50:00;;;;;;;11.00;6.55;;;22.20;99.90;;;;;;4217726;28;20048;-85
2023/06/26 02:52:01;;;;;;;7.38;5.57;;;22.20;99.90;;;;;;4217164;28;20075;-84
2023/06/26 02:54:02;;;;;;;10.20;5.90;;;22.20;99.90;;;;;;4216273;28;20059;-84
2023/06/26 02:56:03;;;;;;;7.88;5.35;;;22.20;99.90;;;;;;4216008;28;20056;-84
2023/06/26 02:58:05;;;;;;;10.30;5.07;;;22.20;99.90;;;;;;4217776;28;20048;-84
2023/06/26 03:00:08;;;;;;;9.57;5.50;;;22.20;99.90;;;;;;4216371;28;20060;-84
2023/06/26 03:02:09;;;;;;;9.68;6.03;;;22.30;99.90;;;;;;4217406;28;20101;-84
2023/06/26 03:04:10;;;;;;;8.93;5.32;;;22.30;99.90;;;;;;4211154;28;20511;-84
2023/06/26 03:06:13;;;;;;;7.32;5.63;;;22.30;99.90;;;;;;4208181;28;20123;-85
2023/06/26 03:08:13;;;;;;;8.18;6.40;;;22.40;99.90;;;;;;4202136;28;20074;-84
2023/06/26 03:10:14;;;;;;;9.60;6.20;;;22.40;99.90;;;;;;4199934;28;20052;-84
2023/06/26 03:12:15;;;;;;;8.73;5.75;;;22.40;99.90;;;;;;4201297;28;20640;-83
2023/06/26 03:14:16;;;;;;;7.28;5.55;;;22.40;99.90;;;;;;4201932;28;20131;-84
2023/06/26 03:16:17;;;;;;;9.35;5.97;;;22.40;99.90;;;;;;4200782;28;20055;-84
2023/06/26 03:18:17;;;;;;;9.32;6.28;;;22.40;99.90;;;;;;4202303;28;20100;-85
2023/06/26 03:20:18;;;;;;;11.95;6.60;;;22.50;99.90;;;;;;4200610;28;20058;-85
2023/06/26 03:22:19;;;;;;;10.93;6.78;;;22.50;99.90;;;;;;4202279;28;20045;-85
2023/06/26 03:24:20;;;;;;;9.18;6.80;;;22.50;99.90;;;;;;4203892;28;20543;-85
2023/06/26 03:26:27;;;;;;;10.55;6.85;;;22.50;99.90;;;;;;4201493;28;20040;-85
2023/06/26 03:28:28;;;;;;;8.25;5.93;;;22.50;99.90;;;;;;4204813;28;20024;-95
2023/06/26 03:30:28;;;;;;;10.05;6.50;;;22.40;99.90;;;;;;4221616;28;20565;-95
2023/06/26 03:32:30;;;;;;;11.05;6.05;;;22.60;99.90;;;;;;4208363;28;20052;-95
2023/06/26 03:34:37;;;;;;;11.13;6.13;;;22.60;99.90;;;;;;4221097;28;20384;-95
2023/06/26 03:36:44;;;;;;;10.13;6.40;;;22.60;99.90;;;;;;4224370;28;20068;-95
2023/06/26 03:38:56;;;;;;;9.80;6.55;;;22.60;99.90;;;;;;4221543;28;20052;-94
2023/06/26 03:40:58;;;;;;;10.57;6.45;;;22.70;99.90;;;;;;4216182;28;20130;-95
2023/06/26 03:43:07;;;;;;;8.52;6.35;;;22.60;99.90;;;;;;4238733;28;20028;-95
2023/06/26 03:45:14;;;;;;;15.18;6.95;;;22.50;99.90;;;;;;4220084;28;20059;-95
2023/06/26 03:47:29;;;;;;;10.52;6.70;;;22.50;99.90;;;;;;4218737;28;20055;-94
2023/06/26 03:49:30;;;;;;;10.70;6.35;;;22.30;99.90;;;;;;4238445;28;20055;-94
2023/06/26 03:51:39;;;;;;;10.07;6.45;;;22.70;99.90;;;;;;4222544;28;20048;-94
2023/06/26 03:54:36;;;;;;;12.20;6.05;;;22.40;99.90;;;;;;4236973;28;20051;-95
2023/06/26 03:57:03;;;;;;;13.30;6.82;;;22.40;99.90;;;;;;4234731;28;20043;-95
2023/06/26 03:59:15;;;;;;;9.68;6.80;;;22.40;99.90;;;;;;4218166;28;20036;-94
2023/06/26 04:01:23;;;;;;;9.63;6.38;;;22.30;99.90;;;;;;4238670;28;20040;-94
2023/06/26 04:03:24;;;;;;;10.60;6.38;;;22.30;99.90;;;;;;4225572;28;20071;-94
2023/06/26 04:05:25;;;;;;;9.15;6.97;;;22.30;99.90;;;;;;4218843;28;20040;-95
2023/06/26 04:07:27;;;;;;;8.88;6.18;;;22.20;99.90;;;;;;4220198;28;20110;-94
2023/06/26 04:09:36;;;;;;;8.32;6.45;;;22.20;99.90;;;;;;4234940;28;20044;-95
2023/06/26 04:11:59;;;;;;;11.35;5.65;;;22.30;99.90;;;;;;4238078;28;20047;-95
2023/06/26 04:13:59;;;;;;;10.15;7.15;;;22.20;99.90;;;;;;4221028;28;20076;-95
2023/06/26 04:16:11;;;;;;;11.05;6.20;;;22.20;99.90;;;;;;4202070;28;20055;-94
2023/06/26 04:18:12;;;;;;;9.88;5.85;;;22.00;99.90;;;;;;4203508;28;20373;-93
2023/06/26 04:20:22;;;;;;;9.55;6.20;;;22.10;99.90;;;;;;4202820;28;20147;-95
2023/06/26 04:22:23;;;;;;;9.18;6.30;;;22.10;99.90;;;;;;4202680;28;20040;-95
2023/06/26 04:24:24;;;;;;;8.55;5.45;;;22.10;99.90;;;;;;4203548;28;20079;-93
2023/06/26 04:26:32;;;;;;;9.25;6.25;;;22.80;99.90;;;;;;4200749;28;20044;-94
2023/06/26 04:28:48;;;;;;;10.02;5.95;;;22.20;99.90;;;;;;4201440;28;20528;-95
2023/06/26 04:30:56;;;;;;;10.82;5.35;;;22.10;99.90;;;;;;4185221;28;20190;-94
2023/06/26 04:32:58;;;;;;;9.47;5.33;;;22.10;99.90;;;;;;4215350;28;20490;-94
2023/06/26 04:35:06;;;;;;;12.43;5.90;;;22.10;99.90;;;;;;4237547;28;20301;-96
2023/06/26 04:37:17;;;;;;;10.82;6.53;;;22.10;99.90;;;;;;4222712;28;20054;-95
2023/06/26 04:39:30;;;;;;;8.93;5.30;;;22.10;99.90;;;;;;4238301;28;20604;-95
2023/06/26 04:41:42;;;;;;;10.10;5.13;;;21.70;99.90;;;;;;4223493;28;20044;-96
2023/06/26 04:43:53;;;;;;;7.63;4.72;;;22.80;99.90;;;;;;4223182;28;20052;-95
2023/06/26 04:45:56;;;;;;;8.68;5.20;;;22.10;99.90;;;;;;4223345;28;20480;-95
2023/06/26 04:48:05;;;;;;;13.90;5.60;;;22.20;99.90;;;;;;4221401;28;20043;-96
2023/06/26 04:50:25;;;;;;;;;;;22.10;99.90;;;;;;4221982;28;20043;-95
2023/06/26 04:52:30;;;;;;;7.15;4.80;;;22.20;99.90;;;;;;4219708;28;20498;-96
2023/06/26 04:54:31;;;;;;;8.57;5.10;;;22.20;99.90;;;;;;4222139;28;20519;-96
2023/06/26 04:56:48;;;;;;;9.52;5.45;;;22.20;99.90;;;;;;4222132;28;20016;-96
2023/06/26 04:58:50;;;;;;;10.10;5.20;;;22.10;99.90;;;;;;4221784;28;20089;-96
2023/06/26 05:00:58;;;;;;;10.27;5.28;;;22.00;99.90;;;;;;4215496;28;20037;-96
2023/06/26 05:03:16;;;;;;;9.40;5.35;;;22.00;99.90;;;;;;4215803;28;20062;-96
2023/06/26 05:05:21;;;;;;;14.57;5.63;;;21.90;99.90;;;;;;4211361;28;20048;-96
2023/06/26 05:07:48;;;;;;;7.93;5.38;;;21.80;99.90;;;;;;4205702;28;20055;-94
2023/06/26 05:10:02;;;;;;;12.13;5.75;;;21.70;99.90;;;;;;4206860;28;20125;-94
2023/06/26 05:12:10;;;;;;;15.10;6.72;;;21.60;99.90;;;;;;4206325;28;20036;-95
2023/06/26 05:14:23;;;;;;;16.77;6.68;;;21.50;99.90;;;;;;4205504;28;20032;-96
2023/06/26 05:16:29;;;;;;;14.27;6.43;;;21.40;99.90;;;;;;4205129;28;20515;-95
2023/06/26 05:18:36;;;;;;;17.15;7.03;;;21.60;99.90;;;;;;4214836;28;20100;-95
2023/06/26 05:20:53;;;;;;;17.15;6.90;;;21.30;99.90;;;;;;4202922;28;20036;-96
2023/06/26 05:23:13;;;;;;;14.98;6.55;;;21.30;99.90;;;;;;4220334;28;20048;-96
2023/06/26 05:25:37;;;;;;;15.73;6.22;;;21.20;99.90;;;;;;4222215;28;20044;-95
2023/06/26 05:27:45;;;;;;;12.52;6.68;;;21.20;99.90;;;;;;4205413;28;20021;-96
2023/06/26 05:29:59;;;;;;;16.20;7.15;;;21.10;99.90;;;;;;4220161;28;20503;-95
2023/06/26 05:32:08;;;;;;;17.88;6.55;;;21.20;99.90;;;;;;4221890;28;20420;-96
2023/06/26 05:34:10;;;;;;;;;;;21.20;99.90;;;;;;4220086;28;20054;-96
2023/06/26 05:36:13;;;;;;;16.23;6.45;;;21.20;99.90;;;;;;4220680;28;19924;-95
2023/06/26 05:38:14;;;;;;;16.35;6.38;;;21.20;99.90;;;;;;4223901;28;20044;-96
2023/06/26 05:40:23;;;;;;;9.90;4.38;;;20.50;99.90;;;;;;4222126;28;20040;-95
2023/06/26 05:42:29;;;;;;;11.80;4.90;;;21.10;99.90;;;;;;4222431;28;20130;-95
2023/06/26 05:44:39;;;;;;;14.20;5.25;;;21.00;99.90;;;;;;4204528;28;20048;-96
2023/06/26 05:46:40;;;;;;;12.80;5.68;;;21.00;99.90;;;;;;4221629;28;20048;-95
2023/06/26 05:48:42;;;;;;;10.15;4.75;;;20.90;99.90;;;;;;4223262;28;20503;-95
2023/06/26 05:50:45;;;;;;;14.45;4.60;;;20.90;99.90;;;;;;4221643;28;20048;-96
2023/06/26 05:52:46;;;;;;;10.50;3.85;;;20.80;99.90;;;;;;4221631;28;20046;-96
2023/06/26 05:54:54;;;;;;;13.98;3.58;;;20.80;99.90;;;;;;4224446;28;20083;-96
2023/06/26 05:57:13;;;;;;;10.38;3.58;;;20.70;99.90;;;;;;4223374;28;20040;-96
2023/06/26 05:59:22;;;;;;;10.50;3.58;;;20.70;99.90;;;;;;4239085;28;20039;-96
2023/06/26 06:01:33;;;;;;;10.10;3.70;;;20.70;99.90;;;;;;4224479;28;20036;-95
2023/06/26 06:03:40;;;;;;;13.52;3.40;;;20.60;99.90;;;;;;4224975;28;20036;-95
2023/06/26 06:05:42;;;;;;;8.57;3.22;;;20.10;99.90;;;;;;4226473;28;20044;-96
2023/06/26 06:07:44;;;;;;;12.85;3.22;;;20.60;99.90;;;;;;4226615;28;20411;-95
2023/06/26 06:09:52;;;;;;;14.05;3.03;;;20.70;99.90;;;;;;4217586;28;20095;-95
2023/06/26 06:12:07;;;;;;;13.13;3.15;;;20.70;99.90;;;;;;4202375;28;20420;-95
2023/06/26 06:14:09;;;;;;;16.92;3.30;;;20.80;99.90;;;;;;4208968;28;20024;-94
2023/06/26 06:16:24;;;;;;;13.43;3.17;;;20.90;99.90;;;;;;4207809;28;20371;-94
2023/06/26 06:18:27;;;;;;;12.55;3.50;;;21.00;99.90;;;;;;4205850;28;20103;-94
2023/06/26 06:20:28;;;;;;;10.27;3.78;;;21.10;99.90;;;;;;4206149;28;20044;-93
2023/06/26 06:22:30;;;;;;;11.75;3.45;;;21.10;99.90;;;;;;4206689;28;20132;-94
2023/06/26 06:24:52;;;;;;;11.18;3.42;;;21.10;99.90;;;;;;4207529;28;20475;-94
2023/06/26 06:26:55;;;;;;;11.77;3.53;;;21.10;99.90;;;;;;4207606;28;20550;-93
2023/06/26 06:28:57;;;;;;;10.82;3.00;;;21.00;99.90;;;;;;4207567;28;20078;-93
2023/06/26 06:31:15;;;;;;;8.02;3.05;;;21.00;99.90;;;;;;4207017;28;20469;-95
2023/06/26 06:33:25;;;;;;;7.40;2.38;;;21.00;99.90;;;;;;4224520;28;20059;-94
2023/06/26 06:35:28;;;;;;;10.95;3.00;;;21.90;99.90;;;;;;4207250;28;20427;-94
2023/06/26 06:37:34;;;;;;;12.43;2.60;;;21.10;99.90;;;;;;4207188;28;20044;-93
2023/06/26 06:39:36;;;;;;;10.40;3.92;;;20.80;99.90;;;;;;4206449;28;20072;-93
2023/06/26 06:41:39;;;;;;;8.80;2.13;;;21.20;99.90;;;;;;4205730;28;20044;-94
2023/06/26 06:43:40;;;;;;;12.35;2.08;;;21.30;99.90;;;;;;4202187;28;20094;-94
2023/06/26 06:45:46;;;;;;;6.82;2.00;;;21.40;99.90;;;;;;4210397;28;20045;-94
2023/06/26 06:47:59;;;;;;;11.05;3.28;;;21.50;99.90;;;;;;4189974;28;20401;-95
2023/06/26 06:50:13;;;;;;;12.90;2.40;;;21.60;99.90;;;;;;4192025;28;20045;-94
2023/06/26 06:52:14;;;;;;;8.85;1.80;;;21.80;99.90;;;;;;4188971;28;20457;-94
2023/06/26 06:54:17;;;;;;;9.60;2.50;;;21.80;99.90;;;;;;4210998;28;20139;-93
2023/06/26 06:56:24;;;;;;;6.97;1.70;;;22.00;99.90;;;;;;4238704;28;20585;-94
2023/06/26 06:58:26;;;;;;;10.75;2.90;;;22.00;99.90;;;;;;4212602;28;20068;-95
2023/06/26 07:00:31;;;;;;;11.48;1.88;;;22.00;99.90;;;;;;4207268;28;20050;-94
2023/06/26 07:02:42;;;;;;;8.27;1.35;;;21.70;99.90;;;;;;4206400;28;20049;-93
2023/06/26 07:04:45;;;;;;;6.45;1.88;;;22.20;99.90;;;;;;4205920;28;20049;-94
2023/06/26 07:06:59;;;;;;;5.93;1.42;;;22.30;99.90;;;;;;4205804;28;20048;-94
2023/06/26 07:09:06;;;;;;;9.98;2.38;;;22.40;99.90;;;;;;4202325;28;20059;-94
2023/06/26 07:11:09;;;;;;;6.50;1.85;;;22.40;99.90;;;;;;4204290;28;20055;-93
2023/06/26 07:13:10;;;;;;;7.40;1.73;;;22.50;99.90;;;;;;4203592;28;20821;-93
2023/06/26 07:15:14;;;;;;;3.35;1.10;;;22.60;99.90;;;;;;4193844;28;20491;-94
2023/06/26 07:17:26;;;;;;;5.15;1.38;;;22.70;99.90;;;;;;4206049;28;20044;-93
2023/06/26 07:19:38;;;;;;;4.28;1.45;;;22.70;99.90;;;;;;4205745;28;20036;-94
2023/06/26 07:21:47;;;;;;;6.78;1.40;;;22.70;99.90;;;;;;4207435;28;20194;-94
2023/06/26 07:24:00;;;;;;;4.57;1.50;;;22.80;99.90;;;;;;4205583;28;20020;-95
2023/06/26 07:26:07;;;;;;;4.65;1.75;;;23.00;99.90;;;;;;4204242;28;20048;-93
2023/06/26 07:28:12;;;;;;;5.20;1.27;;;23.10;99.90;;;;;;4204466;28;20040;-93
2023/06/26 07:30:13;;;;;;;4.90;1.33;;;23.10;99.90;;;;;;4202662;28;20047;-92
2023/06/26 07:32:16;;;;;;;3.00;1.30;;;23.20;99.90;;;;;;4217190;28;20047;-89
2023/06/26 07:34:27;;;;;;;3.00;1.20;;;23.30;99.90;;;;;;4202077;28;20075;-92
2023/06/26 07:36:27;;;;;;;7.55;1.02;;;23.40;99.90;;;;;;4203491;28;20088;-93
2023/06/26 07:38:30;;;;;;;4.00;1.55;;;23.60;99.90;;;;;;4218819;28;20040;-94
2023/06/26 07:40:39;;;;;;;7.07;1.52;;;23.80;99.90;;;;;;4205806;28;20078;-94
2023/06/26 07:42:54;;;;;;;;;;;23.80;99.90;;;;;;4202940;28;20080;-94
2023/06/26 07:45:11;;;;;;;6.55;1.42;;;23.90;99.90;;;;;;4221523;28;20404;-93
2023/06/26 07:47:14;;;;;;;5.20;1.52;;;24.00;99.90;;;;;;4222677;28;20110;-94
2023/06/26 07:49:15;;;;;;;3.33;1.23;;;24.20;99.90;;;;;;4203248;28;20044;-94
2023/06/26 07:51:17;;;;;;;6.82;1.30;;;24.30;99.90;;;;;;4203125;28;20546;-94
2023/06/26 07:53:19;;;;;;;4.35;1.23;;;24.00;99.90;;;;;;4198564;28;20092;-93
2023/06/26 07:55:19;;;;;;;5.80;1.17;;;24.20;99.90;;;;;;4205940;28;20135;-94
2023/06/26 07:57:23;;;;;;;4.68;1.23;;;24.10;99.90;;;;;;4207744;28;20081;-94
2023/06/26 07:59:31;;;;;;;4.13;1.02;;;24.00;99.90;;;;;;4207004;28;20040;-94
2023/06/26 08:01:42;;;;;;;4.90;1.10;;;24.20;99.90;;;;;;4204882;28;20084;-94
2023/06/26 08:03:44;;;;;;;7.82;1.10;;;24.20;99.90;;;;;;4204089;28;20128;-94
2023/06/26 08:05:55;;;;;;;6.90;1.20;;;24.30;99.90;;;;;;4203643;28;20048;-95
2023/06/26 08:08:06;;;;;;;4.80;1.27;;;24.20;99.90;;;;;;4206269;28;20048;-94
2023/06/26 08:10:07;;;;;;;5.18;0.95;;;24.20;99.90;;;;;;4225743;28;20044;-94
2023/06/26 08:12:16;;;;;;;5.82;1.00;;;24.10;99.90;;;;;;4207539;28;20044;-94
2023/06/26 08:14:46;;;;;;;8.32;1.30;;;23.90;99.90;;;;;;4210961;28;20067;-95
2023/06/26 08:17:16;;;;;;;3.97;1.08;;;24.10;99.90;;;;;;4205589;28;20064;-95
2023/06/26 08:19:18;;;;;;;5.18;0.80;;;24.00;99.90;;;;;;4205452;28;20044;-94
2023/06/26 08:21:26;;;;;;;6.18;1.10;;;24.10;99.90;;;;;;4201971;28;20044;-93
2023/06/26 08:23:28;;;;;;;8.07;1.33;;;23.90;99.90;;;;;;4202793;28;20123;-94
2023/06/26 08:25:29;;;;;;;2.67;1.02;;;24.00;99.90;;;;;;4200822;28;20079;-94
2023/06/26 08:27:35;;;;;;;8.63;1.52;;;24.00;99.90;;;;;;4202081;28;20800;-93
2023/06/26 08:29:36;;;;;;;14.52;2.53;;;24.10;99.90;;;;;;4200673;28;20436;-92
2023/06/26 08:31:38;;;;;;;6.55;1.48;;;24.20;99.90;;;;;;4218354;28;20087;-93
2023/06/26 08:33:46;;;;;;;3.45;1.20;;;24.50;99.90;;;;;;4200163;28;20048;-93
2023/06/26 08:35:48;;;;;;;4.30;1.00;;;24.40;99.90;;;;;;4199643;28;20134;-93
2023/06/26 08:37:49;;;;;;;6.90;1.15;;;25.00;99.50;;;;;;4217372;28;20063;-89
2023/06/26 08:39:52;;;;;;;6.82;1.30;;;25.10;99.00;;;;;;4216850;28;20047;-93
2023/06/26 08:41:53;;;;;;;4.15;1.40;;;25.20;98.90;;;;;;4216568;28;20092;-90
2023/06/26 08:43:54;;;;;;;4.22;1.38;;;25.20;98.90;;;;;;4200536;28;20045;-91
2023/06/26 08:45:57;;;;;;;4.75;1.15;;;25.00;98.70;;;;;;4218534;28;20096;-90
2023/06/26 08:48:00;;;;;;;2.05;0.90;;;24.90;98.60;;;;;;4223745;28;20047;-90
2023/06/26 08:50:08;;;;;;;4.15;1.20;;;25.00;98.70;;;;;;4220560;28;20040;-88
2023/06/26 08:52:23;;;;;;;9.60;1.20;;;24.90;98.60;;;;;;4202765;28;20443;-89
2023/06/26 08:54:36;;;;;;;4.68;1.48;;;24.90;98.60;;;;;;4218875;28;20109;-89
2023/06/26 08:56:44;;;;;;;5.10;1.00;;;24.90;98.70;;;;;;4201346;28;20084;-90
2023/06/26 08:58:47;;;;;;;3.63;1.10;;;25.10;98.70;;;;;;4216406;28;20123;-90
2023/06/26 09:00:49;;;;;;;3.85;1.35;;;25.30;98.60;;;;;;4216611;28;20036;-88
2023/06/26 09:02:50;;;;;;;5.10;1.52;;;25.30;98.30;;;;;;4214624;28;20048;-89
2023/06/26 09:04:52;;;;;;;5.82;1.42;;;25.20;98.00;;;;;;4210097;28;20523;-88
2023/06/26 09:07:00;;;;;;;2.85;1.02;;;25.10;98.00;;;;;;4198213;28;20048;-88
2023/06/26 09:09:07;;;;;;;5.57;1.50;;;24.90;97.80;;;;;;4198534;28;20396;-88
2023/06/26 09:11:09;;;;;;;3.28;1.00;;;25.00;98.00;;;;;;4193790;28;20468;-85
2023/06/26 09:13:11;;;;;;;3.65;1.15;;;25.20;98.00;;;;;;4224796;28;20039;-86
2023/06/26 09:15:15;;;;;;;4.22;1.27;;;25.50;97.90;;;;;;4208403;28;20036;-86
2023/06/26 09:17:30;;;;;;;4.55;1.52;;;25.60;97.60;;;;;;4206395;28;20052;-86
2023/06/26 09:19:31;;;;;;;2.55;1.30;;;25.40;97.10;;;;;;4203157;28;20094;-85
2023/06/26 09:21:33;;;;;;;4.90;1.75;;;25.20;97.30;;;;;;4217903;28;20044;-86
2023/06/26 09:23:35;;;;;;;5.38;1.40;;;25.00;97.00;;;;;;4200707;28;20062;-85
2023/06/26 09:25:39;;;;;;;4.03;1.40;;;24.80;97.20;;;;;;4218912;28;20051;-88
2023/06/26 09:27:42;;;;;;;44.85;5.07;;;25.20;97.40;;;;;;4221746;28;20066;-87
2023/06/26 09:29:47;;;;;;;11.07;2.58;;;25.00;97.00;;;;;;4201986;28;20618;-86
2023/06/26 09:31:47;;;;;;;4.05;1.20;;;25.50;96.40;;;;;;4215913;28;20013;-86
2023/06/26 09:33:49;;;;;;;4.13;1.30;;;25.30;96.30;;;;;;4185750;28;20040;-85
2023/06/26 09:35:51;;;;;;;4.63;1.25;;;25.00;96.10;;;;;;4216160;28;20048;-86
2023/06/26 09:37:53;;;;;;;4.10;1.40;;;25.00;96.00;;;;;;4201505;28;20093;-86
2023/06/26 09:40:00;;;;;;;3.13;1.23;;;25.20;96.10;;;;;;4224400;28;20052;-85
2023/06/26 09:42:01;;;;;;;5.13;1.20;;;25.60;95.80;;;;;;4223770;28;20135;-87
2023/06/26 09:44:11;;;;;;;3.92;1.35;;;25.90;95.70;;;;;;4219436;28;20040;-86
2023/06/26 09:46:26;;;;;;;4.55;1.30;;;26.00;95.30;;;;;;4218675;28;20047;-85
2023/06/26 09:48:28;;;;;;;5.80;2.28;;;25.80;95.40;;;;;;4204044;28;20146;-86
2023/06/26 09:50:31;;;;;;;5.25;1.42;;;25.50;95.30;;;;;;4219936;28;20040;-85
2023/06/26 09:52:41;;;;;;;4.35;1.40;;;25.30;95.30;;;;;;4203042;28;20048;-87
2023/06/26 09:54:46;;;;;;;3.38;1.60;;;25.20;94.80;;;;;;4223488;28;20106;-87
2023/06/26 09:56:49;;;;;;;3.88;1.20;;;25.60;94.90;;;;;;4222293;28;20104;-88
2023/06/26 09:58:50;;;;;;;9.02;2.08;;;25.50;94.80;;;;;;4218832;28;20076;-88
2023/06/26 10:00:51;;;;;;;4.75;2.25;;;25.60;94.90;;;;;;4220919;28;20039;-87
2023/06/26 10:02:52;;;;;;;6.30;1.67;;;25.80;94.90;;;;;;4210099;28;20044;-87
2023/06/26 10:04:53;;;;;;;5.82;1.52;;;26.00;94.80;;;;;;4214032;28;20497;-86
2023/06/26 10:07:00;;;;;;;5.95;1.60;;;26.40;94.60;;;;;;4222126;28;20044;-87
2023/06/26 10:09:03;;;;;;;3.63;1.48;;;26.50;94.10;;;;;;4223960;28;20142;-87
2023/06/26 10:11:04;;;;;;;3.83;1.38;;;26.20;93.50;;;;;;4211804;28;20546;-87
2023/06/26 10:13:15;;;;;;;9.75;1.70;;;26.20;93.30;;;;;;4212289;28;20044;-84
2023/06/26 10:15:17;;;;;;;4.88;1.50;;;26.00;92.60;;;;;;4214539;28;20040;-85
2023/06/26 10:17:22;;;;;;;3.60;1.55;;;25.80;92.90;;;;;;4217818;28;20516;-86
2023/06/26 10:19:28;;;;;;;2.75;1.73;;;25.70;92.70;;;;;;4214338;28;20093;-85
2023/06/26 10:21:31;;;;;;;2.47;1.20;;;25.90;92.50;;;;;;4216772;28;20193;-85
2023/06/26 10:23:34;;;;;;;3.80;1.60;;;26.10;92.30;;;;;;4218072;28;20044;-85
2023/06/26 10:25:39;;;;;;;2.47;1.45;;;26.40;92.20;;;;;;4232069;28;20051;-86
2023/06/26 10:27:43;;;;;;;6.72;1.50;;;26.50;91.80;;;;;;4217938;28;20519;-85
2023/06/26 10:29:54;;;;;;;6.95;2.10;;;26.50;91.30;;;;;;4218493;28;20044;-85
2023/06/26 10:31:57;;;;;;;3.33;1.65;;;26.30;90.20;;;;;;4219653;28;20047;-85
2023/06/26 10:33:59;;;;;;;3.50;1.60;;;26.10;91.30;;;;;;4219762;28;20048;-85
2023/06/26 10:36:18;;;;;;;4.25;1.70;;;26.30;91.60;;;;;;4219937;28;20052;-86
2023/06/26 10:38:19;;;;;;;4.20;1.85;;;26.50;91.00;;;;;;4217891;28;20067;-86
2023/06/26 10:40:28;;;;;;;5.45;1.60;;;26.60;90.60;;;;;;4219806;28;20119;-86
2023/06/26 10:42:35;;;;;;;;;;;26.70;90.00;;;;;;4216989;28;20052;-86
2023/06/26 10:44:44;;;;;;;4.10;1.65;;;27.00;90.40;;;;;;4206809;28;19978;-86
2023/06/26 10:46:55;;;;;;;4.50;1.63;;;27.30;90.10;;;;;;4234426;28;20058;-86
2023/06/26 10:49:01;;;;;;;8.55;1.88;;;27.40;88.90;;;;;;4219129;28;20460;-85
2023/06/26 10:51:22;;;;;;;5.78;1.38;;;27.20;88.10;;;;;;4217099;28;20048;-86
2023/06/26 10:53:26;;;;;;;2.47;1.77;;;26.80;86.90;;;;;;4217811;28;20607;-84